Time;durP1;ratioP1;P1;durP2;ratioP2;P2;SDS_P1;SDS_P2;PMS_P1;PMS_P2;Temp;Humidity;BMP_temperature;BMP_pressure;BME280_temperature;BME280_humidity;BME280_pressure;Samples;Min_cycle;Max_cycle;Signal;HPM_P1;HPM_P2
2024/03/16 00:00:43;;;;;;;34.15;20.67;;;;;;;;;;5114865;28;20040;-65
2024/03/16 00:03:09;;;;;;;34.05;22.15;;;;;;;;;;5114452;28;20096;-64
2024/03/16 00:05:36;;;;;;;39.33;22.38;;;;;;;;;;5114959;28;20042;-65
2024/03/16 00:08:02;;;;;;;38.33;22.23;;;;;;;;;;5114581;28;20127;-65
2024/03/16 00:10:27;;;;;;;38.47;22.90;;;;;;;;;;5112838;28;20055;-65
2024/03/16 00:12:53;;;;;;;36.53;21.98;;;;;;;;;;5095769;28;20111;-64
2024/03/16 00:15:18;;;;;;;37.45;23.77;;;;;;;;;;5095364;28;20055;-65
2024/03/16 00:17:43;;;;;;;39.67;22.33;;;;;;;;;;5114600;28;20100;-64
2024/03/16 00:20:10;;;;;;;39.22;22.73;;;;;;;;;;5106356;28;20016;-66
2024/03/16 00:22:37;;;;;;;39.90;22.25;;;;;;;;;;5094749;28;20056;-65
2024/03/16 00:25:03;;;;;;;39.45;21.58;;;;;;;;;;5094961;28;20412;-65
2024/03/16 00:27:29;;;;;;;34.53;20.98;;;;;;;;;;5093332;28;20395;-64
2024/03/16 00:29:55;;;;;;;33.33;21.27;;;;;;;;;;5093912;28;20453;-64
2024/03/16 00:32:21;;;;;;;34.30;20.23;;;;;;;;;;5106397;28;20088;-65
2024/03/16 00:34:46;;;;;;;33.67;20.40;;;;;;;;;;5114139;28;20024;-65
2024/03/16 00:37:12;;;;;;;38.75;21.38;;;;;;;;;;5114048;28;20027;-64
2024/03/16 00:39:37;;;;;;;36.15;20.90;;;;;;;;;;5114174;28;20099;-64
2024/03/16 00:42:03;;;;;;;35.78;21.30;;;;;;;;;;5113882;28;20034;-65
2024/03/16 00:44:28;;;;;;;36.78;22.13;;;;;;;;;;5112087;28;20460;-66
2024/03/16 00:46:54;;;;;;;37.88;21.95;;;;;;;;;;5113588;28;20357;-65
2024/03/16 00:49:19;;;;;;;35.65;20.30;;;;;;;;;;5112853;28;20030;-65
2024/03/16 00:51:44;;;;;;;40.20;21.15;;;;;;;;;;5103637;28;20027;-63
2024/03/16 00:54:13;;;;;;;41.58;21.50;;;;;;;;;;5093058;28;20036;-65
2024/03/16 00:56:38;;;;;;;35.28;22.58;;;;;;;;;;5108074;28;20034;-64
2024/03/16 00:59:04;;;;;;;37.80;21.67;;;;;;;;;;5112825;28;20110;-64
2024/03/16 01:01:33;;;;;;;42.60;22.17;;;;;;;;;;5113275;28;20081;-65
2024/03/16 01:03:59;;;;;;;40.05;23.13;;;;;;;;;;5113541;28;20093;-64
2024/03/16 01:06:25;;;;;;;40.47;23.42;;;;;;;;;;5113493;28;20415;-64
2024/03/16 01:08:50;;;;;;;37.33;22.70;;;;;;;;;;5113314;28;20098;-64
2024/03/16 01:11:15;;;;;;;42.72;23.98;;;;;;;;;;5100760;28;20051;-65
2024/03/16 01:13:40;;;;;;;42.80;22.75;;;;;;;;;;5092355;28;20465;-65
2024/03/16 01:16:06;;;;;;;41.67;23.80;;;;;;;;;;5093182;28;20426;-65
2024/03/16 01:18:31;;;;;;;41.00;24.08;;;;;;;;;;5096413;28;20043;-65
2024/03/16 01:20:57;;;;;;;40.38;23.05;;;;;;;;;;5112051;28;20031;-65
2024/03/16 01:23:22;;;;;;;42.63;23.35;;;;;;;;;;5113391;28;20106;-64
2024/03/16 01:25:49;;;;;;;39.35;22.40;;;;;;;;;;5113316;27;20023;-64
2024/03/16 01:28:14;;;;;;;41.22;23.80;;;;;;;;;;5112919;28;20058;-65
2024/03/16 01:30:40;;;;;;;44.22;23.42;;;;;;;;;;5111357;28;20055;-65
2024/03/16 01:33:05;;;;;;;42.22;23.85;;;;;;;;;;5113198;28;20408;-65
2024/03/16 01:35:31;;;;;;;43.45;23.48;;;;;;;;;;5113309;28;20110;-64
2024/03/16 01:37:56;;;;;;;44.42;23.63;;;;;;;;;;5112564;28;20024;-65
2024/03/16 01:40:25;;;;;;;42.80;23.77;;;;;;;;;;5112840;28;20099;-64
2024/03/16 01:42:52;;;;;;;42.50;23.70;;;;;;;;;;5105610;28;20477;-65
2024/03/16 01:45:18;;;;;;;44.25;23.05;;;;;;;;;;5092116;28;20398;-65
2024/03/16 01:47:44;;;;;;;47.83;23.95;;;;;;;;;;5092370;28;20115;-64
2024/03/16 01:50:09;;;;;;;41.63;23.20;;;;;;;;;;5096808;28;20098;-64
2024/03/16 01:52:35;;;;;;;40.22;23.98;;;;;;;;;;5112946;28;20053;-65
2024/03/16 01:55:01;;;;;;;42.80;22.70;;;;;;;;;;5113100;28;20031;-64
2024/03/16 01:57:27;;;;;;;40.67;22.77;;;;;;;;;;5112306;28;20020;-65
2024/03/16 01:59:52;;;;;;;46.95;24.48;;;;;;;;;;5092960;28;20039;-66
2024/03/16 02:02:36;;;;;;;45.72;22.98;;;;;;;;;;5092587;28;20066;-64
2024/03/16 02:05:03;;;;;;;43.70;23.42;;;;;;;;;;5092578;28;20447;-64
2024/03/16 02:07:34;;;;;;;43.03;23.60;;;;;;;;;;5105409;28;20039;-65
2024/03/16 02:10:00;;;;;;;36.35;21.83;;;;;;;;;;5115121;28;20402;-65
2024/03/16 02:12:25;;;;;;;52.45;24.90;;;;;;;;;;5116940;28;20015;-65
2024/03/16 02:14:51;;;;;;;44.45;23.73;;;;;;;;;;5116616;28;20031;-65
2024/03/16 02:17:16;;;;;;;40.13;23.20;;;;;;;;;;5115563;28;20023;-66
2024/03/16 02:19:42;;;;;;;44.15;23.42;;;;;;;;;;5097863;28;20024;-65
2024/03/16 02:22:08;;;;;;;44.50;22.27;;;;;;;;;;5096033;28;20346;-65
2024/03/16 02:24:34;;;;;;;43.35;23.00;;;;;;;;;;5096142;28;20020;-64
2024/03/16 02:27:00;;;;;;;42.03;23.58;;;;;;;;;;5095827;28;20359;-65
2024/03/16 02:29:27;;;;;;;42.00;22.67;;;;;;;;;;5095988;28;20024;-65
2024/03/16 02:31:53;;;;;;;44.33;23.15;;;;;;;;;;5108916;28;20088;-62
2024/03/16 02:34:18;;;;;;;42.65;24.05;;;;;;;;;;5116114;27;20054;-64
2024/03/16 02:36:44;;;;;;;48.05;23.92;;;;;;;;;;5115585;28;20020;-66
2024/03/16 02:39:11;;;;;;;46.17;23.70;;;;;;;;;;5101919;28;20031;-66
2024/03/16 02:41:36;;;;;;;40.80;22.77;;;;;;;;;;5095734;28;20026;-64
2024/03/16 02:44:02;;;;;;;45.55;23.80;;;;;;;;;;5095796;28;20024;-65
2024/03/16 02:46:28;;;;;;;45.95;24.27;;;;;;;;;;5095852;28;20028;-63
2024/03/16 02:48:53;;;;;;;44.97;23.30;;;;;;;;;;5094846;28;20028;-65
2024/03/16 02:51:18;;;;;;;38.97;22.27;;;;;;;;;;5095684;28;20016;-65
2024/03/16 02:53:44;;;;;;;49.67;23.67;;;;;;;;;;5098273;28;20402;-65
2024/03/16 02:56:09;;;;;;;40.88;22.80;;;;;;;;;;5096545;28;20036;-64
2024/03/16 02:58:35;;;;;;;39.58;21.95;;;;;;;;;;5104142;28;20020;-65
2024/03/16 03:01:00;;;;;;;41.75;23.08;;;;;;;;;;5116052;28;20361;-65
2024/03/16 03:03:25;;;;;;;45.70;23.50;;;;;;;;;;5116026;28;20019;-64
2024/03/16 03:05:52;;;;;;;43.63;23.27;;;;;;;;;;5115821;28;20011;-64
2024/03/16 03:08:18;;;;;;;46.15;23.85;;;;;;;;;;5115993;28;20071;-64
2024/03/16 03:10:43;;;;;;;45.20;23.35;;;;;;;;;;5115837;28;20115;-64
2024/03/16 03:13:09;;;;;;;39.15;22.10;;;;;;;;;;5107415;28;20788;-64
2024/03/16 03:15:35;;;;;;;40.00;23.35;;;;;;;;;;5094098;28;20024;-63
2024/03/16 03:18:00;;;;;;;38.90;22.35;;;;;;;;;;5106149;28;20023;-65
2024/03/16 03:20:26;;;;;;;38.90;23.10;;;;;;;;;;5115848;28;20022;-64
2024/03/16 03:22:51;;;;;;;41.05;23.30;;;;;;;;;;5115458;28;20062;-65
2024/03/16 03:25:18;;;;;;;45.15;23.90;;;;;;;;;;5115721;28;20020;-64
2024/03/16 03:27:44;;;;;;;44.35;24.38;;;;;;;;;;5115396;28;20051;-64
2024/03/16 03:30:10;;;;;;;42.95;23.75;;;;;;;;;;5115727;28;20898;-65
2024/03/16 03:32:35;;;;;;;42.30;24.90;;;;;;;;;;5113247;28;20031;-64
2024/03/16 03:35:01;;;;;;;45.20;25.08;;;;;;;;;;5115238;28;20503;-64
2024/03/16 03:37:27;;;;;;;49.17;24.17;;;;;;;;;;5111653;28;20073;-65
2024/03/16 03:39:52;;;;;;;39.22;23.60;;;;;;;;;;5113642;27;20030;-65
2024/03/16 03:42:19;;;;;;;41.65;24.70;;;;;;;;;;5115519;28;20327;-63
2024/03/16 03:45:00;;;;;;;41.05;23.33;;;;;;;;;;5114735;28;20358;-63
2024/03/16 03:47:33;;;;;;;48.15;23.30;;;;;;;;;;5114943;27;20035;-64
2024/03/16 03:49:59;;;;;;;44.13;23.63;;;;;;;;;;5115262;28;20152;-65
2024/03/16 03:52:24;;;;;;;41.42;23.40;;;;;;;;;;5114875;28;20043;-65
2024/03/16 03:54:50;;;;;;;39.85;21.85;;;;;;;;;;5112960;28;20038;-66
2024/03/16 03:57:15;;;;;;;39.97;22.52;;;;;;;;;;5108262;28;20024;-65
2024/03/16 03:59:41;;;;;;;42.50;21.27;;;;;;;;;;5094271;28;20024;-66
2024/03/16 04:02:06;;;;;;;36.53;20.80;;;;;;;;;;5094181;28;20115;-65
2024/03/16 04:04:31;;;;;;;34.33;20.50;;;;;;;;;;5094723;28;20052;-65
2024/03/16 04:06:57;;;;;;;44.20;21.13;;;;;;;;;;5094009;28;20106;-66
2024/03/16 04:09:22;;;;;;;36.25;20.35;;;;;;;;;;5094686;28;20046;-66
2024/03/16 04:11:48;;;;;;;36.42;20.92;;;;;;;;;;5093948;28;20024;-66
2024/03/16 04:14:13;;;;;;;39.40;21.13;;;;;;;;;;5093675;28;20130;-67
2024/03/16 04:16:38;;;;;;;38.13;20.48;;;;;;;;;;5094981;28;20035;-66
2024/03/16 04:19:04;;;;;;;34.83;19.85;;;;;;;;;;5114121;28;20024;-64
2024/03/16 04:21:29;;;;;;;34.22;21.08;;;;;;;;;;5114377;28;20016;-65
2024/03/16 04:23:54;;;;;;;37.92;20.70;;;;;;;;;;5114193;28;20069;-64
2024/03/16 04:26:20;;;;;;;36.05;21.25;;;;;;;;;;5114615;28;20346;-64
2024/03/16 04:28:45;;;;;;;38.60;19.88;;;;;;;;;;5113675;28;20027;-65
2024/03/16 04:31:10;;;;;;;35.08;20.13;;;;;;;;;;5111486;28;20098;-65
2024/03/16 04:33:36;;;;;;;42.13;20.67;;;;;;;;;;5114491;28;20019;-64
2024/03/16 04:36:01;;;;;;;38.20;20.73;;;;;;;;;;5113896;28;20016;-66
2024/03/16 04:38:26;;;;;;;38.42;21.35;;;;;;;;;;5096826;28;20027;-64
2024/03/16 04:40:52;;;;;;;35.63;20.10;;;;;;;;;;5094122;28;20429;-65
2024/03/16 04:43:17;;;;;;;39.30;20.23;;;;;;;;;;5094421;28;20472;-65
2024/03/16 04:45:47;;;;;;;39.03;20.45;;;;;;;;;;5093245;28;20331;-65
2024/03/16 04:48:12;;;;;;;38.55;20.08;;;;;;;;;;5093585;28;20035;-64
2024/03/16 04:50:38;;;;;;;35.13;20.10;;;;;;;;;;5093532;28;20020;-64
2024/03/16 04:53:03;;;;;;;39.78;20.33;;;;;;;;;;5093036;28;20485;-65
2024/03/16 04:55:28;;;;;;;39.10;20.55;;;;;;;;;;5094295;28;20350;-68
2024/03/16 04:57:54;;;;;;;38.95;19.77;;;;;;;;;;5105782;28;20031;-67
2024/03/16 05:00:19;;;;;;;34.85;19.42;;;;;;;;;;5113496;28;20016;-66
2024/03/16 05:02:45;;;;;;;36.35;20.15;;;;;;;;;;5113522;28;20047;-70
2024/03/16 05:05:10;;;;;;;38.47;20.58;;;;;;;;;;5113773;28;20077;-56
2024/03/16 05:07:35;;;;;;;36.70;19.38;;;;;;;;;;5113655;28;20023;-64
2024/03/16 05:10:01;;;;;;;38.72;20.50;;;;;;;;;;5113537;27;20023;-63
2024/03/16 05:12:26;;;;;;;35.25;19.67;;;;;;;;;;5113057;28;20051;-64
2024/03/16 05:14:51;;;;;;;34.47;19.08;;;;;;;;;;5113996;27;20027;-63
2024/03/16 05:17:17;;;;;;;37.92;20.00;;;;;;;;;;5106066;28;20102;-63
2024/03/16 05:19:42;;;;;;;34.00;19.45;;;;;;;;;;5092721;28;20108;-61
2024/03/16 05:22:08;;;;;;;40.35;21.58;;;;;;;;;;5092923;28;20112;-63
2024/03/16 05:24:33;;;;;;;37.38;19.70;;;;;;;;;;5092990;28;20442;-64
2024/03/16 05:26:58;;;;;;;33.42;19.90;;;;;;;;;;5092768;28;20031;-64
2024/03/16 05:29:25;;;;;;;34.30;19.48;;;;;;;;;;5092941;28;20040;-64
2024/03/16 05:31:58;;;;;;;37.63;20.38;;;;;;;;;;5092771;28;20354;-64
2024/03/16 05:34:24;;;;;;;41.92;20.90;;;;;;;;;;5093259;28;20012;-64
2024/03/16 05:36:49;;;;;;;36.22;20.33;;;;;;;;;;5096297;28;20334;-65
2024/03/16 05:39:14;;;;;;;37.15;20.17;;;;;;;;;;5112922;28;20028;-63
2024/03/16 05:41:40;;;;;;;39.85;20.13;;;;;;;;;;5102767;28;20024;-64
2024/03/16 05:44:05;;;;;;;33.22;20.27;;;;;;;;;;5092764;28;20023;-60
2024/03/16 05:46:31;;;;;;;39.10;20.15;;;;;;;;;;5092819;28;20020;-65
2024/03/16 05:48:56;;;;;;;36.50;20.15;;;;;;;;;;5092905;28;20085;-66
2024/03/16 05:51:22;;;;;;;33.53;19.95;;;;;;;;;;5092405;28;20016;-63
2024/03/16 05:53:48;;;;;;;36.63;19.77;;;;;;;;;;5092650;28;20052;-65
2024/03/16 05:56:13;;;;;;;34.22;20.25;;;;;;;;;;5099381;28;20031;-63
2024/03/16 05:58:39;;;;;;;35.97;19.63;;;;;;;;;;5107694;28;20028;-65
2024/03/16 06:01:04;;;;;;;35.28;19.58;;;;;;;;;;5110594;28;20478;-62
2024/03/16 06:03:30;;;;;;;41.13;20.27;;;;;;;;;;5113010;28;20036;-65
2024/03/16 06:05:56;;;;;;;33.40;19.77;;;;;;;;;;5101784;28;20028;-63
2024/03/16 06:08:21;;;;;;;47.75;20.80;;;;;;;;;;5091903;28;20127;-64
2024/03/16 06:10:47;;;;;;;38.58;20.63;;;;;;;;;;5092068;28;20063;-64
2024/03/16 06:13:13;;;;;;;39.85;20.48;;;;;;;;;;5093295;28;20430;-65
2024/03/16 06:15:39;;;;;;;36.22;19.48;;;;;;;;;;5092022;28;20043;-64
2024/03/16 06:18:05;;;;;;;38.15;19.30;;;;;;;;;;5091885;28;20170;-63
2024/03/16 06:20:30;;;;;;;34.33;19.85;;;;;;;;;;5093322;28;20103;-67
2024/03/16 06:22:56;;;;;;;41.50;21.40;;;;;;;;;;5092380;28;20031;-64
2024/03/16 06:25:24;;;;;;;41.58;22.00;;;;;;;;;;5092323;28;20070;-64
2024/03/16 06:27:49;;;;;;;43.38;20.45;;;;;;;;;;5091961;28;20370;-63
2024/03/16 06:30:15;;;;;;;43.95;20.90;;;;;;;;;;5104498;28;20024;-64
2024/03/16 06:32:55;;;;;;;38.40;20.98;;;;;;;;;;5112244;28;20368;-66
2024/03/16 06:35:21;;;;;;;41.92;21.10;;;;;;;;;;5112482;28;20240;-63
2024/03/16 06:37:46;;;;;;;42.90;23.02;;;;;;;;;;5112637;28;20353;-64
2024/03/16 06:40:11;;;;;;;44.15;20.52;;;;;;;;;;5112459;28;20107;-62
2024/03/16 06:42:37;;;;;;;44.15;22.02;;;;;;;;;;5112633;28;20028;-64
2024/03/16 06:45:04;;;;;;;43.00;21.40;;;;;;;;;;5110835;28;20032;-66
2024/03/16 06:47:29;;;;;;;42.85;22.88;;;;;;;;;;5110481;28;20078;-64
2024/03/16 06:49:55;;;;;;;41.13;22.02;;;;;;;;;;5101822;28;20052;-64
2024/03/16 06:52:24;;;;;;;38.28;21.77;;;;;;;;;;5092371;28;20184;-65
2024/03/16 06:54:53;;;;;;;36.30;20.60;;;;;;;;;;5112020;28;20020;-63
2024/03/16 06:57:18;;;;;;;44.05;21.20;;;;;;;;;;5115881;28;20446;-65
2024/03/16 06:59:44;;;;;;;37.05;20.83;;;;;;;;;;5116233;28;20023;-64
2024/03/16 07:02:09;;;;;;;41.67;22.00;;;;;;;;;;5116168;28;20103;-64
2024/03/16 07:04:34;;;;;;;38.10;21.63;;;;;;;;;;5115802;28;20027;-64
2024/03/16 07:07:00;;;;;;;37.28;20.15;;;;;;;;;;5116117;28;20031;-64
2024/03/16 07:09:25;;;;;;;45.60;22.35;;;;;;;;;;5114246;28;20024;-63
2024/03/16 07:11:50;;;;;;;40.22;21.88;;;;;;;;;;5116170;28;20075;-63
2024/03/16 07:14:17;;;;;;;38.83;20.95;;;;;;;;;;5115598;28;20080;-62
2024/03/16 07:16:42;;;;;;;40.17;21.15;;;;;;;;;;5115353;28;20031;-63
2024/03/16 07:19:07;;;;;;;36.00;20.17;;;;;;;;;;5099461;28;20016;-64
2024/03/16 07:21:33;;;;;;;38.25;21.52;;;;;;;;;;5095886;28;20032;-65
2024/03/16 07:23:59;;;;;;;43.22;21.75;;;;;;;;;;5093949;28;20020;-66
2024/03/16 07:26:25;;;;;;;44.20;22.48;;;;;;;;;;5094862;28;20049;-65
2024/03/16 07:28:51;;;;;;;41.28;21.33;;;;;;;;;;5103988;28;20032;-64
2024/03/16 07:31:16;;;;;;;36.40;20.60;;;;;;;;;;5114730;28;20319;-63
2024/03/16 07:33:41;;;;;;;43.53;21.23;;;;;;;;;;5115073;28;20022;-64
2024/03/16 07:36:08;;;;;;;41.72;21.65;;;;;;;;;;5115153;28;20050;-64
2024/03/16 07:38:33;;;;;;;37.20;20.02;;;;;;;;;;5104041;28;20108;-65
2024/03/16 07:40:59;;;;;;;41.65;21.17;;;;;;;;;;5094904;28;20099;-65
2024/03/16 07:43:24;;;;;;;37.88;20.45;;;;;;;;;;5110486;28;20833;-64
2024/03/16 07:45:49;;;;;;;40.85;21.02;;;;;;;;;;5114096;28;20107;-60
2024/03/16 07:48:15;;;;;;;38.72;21.08;;;;;;;;;;5114867;28;20031;-61
2024/03/16 07:50:40;;;;;;;35.25;19.90;;;;;;;;;;5105413;27;20012;-59
2024/03/16 07:53:06;;;;;;;35.90;19.67;;;;;;;;;;5094356;28;20154;-67
2024/03/16 07:55:31;;;;;;;39.65;21.05;;;;;;;;;;5094586;28;20354;-60
2024/03/16 07:57:56;;;;;;;36.90;21.48;;;;;;;;;;5093158;28;20020;-64
2024/03/16 08:00:22;;;;;;;41.13;21.70;;;;;;;;;;5095877;28;20027;-61
2024/03/16 08:02:47;;;;;;;33.70;20.30;;;;;;;;;;5114585;28;20113;-61
2024/03/16 08:05:13;;;;;;;32.50;20.40;;;;;;;;;;5112557;28;20023;-63
2024/03/16 08:07:41;;;;;;;37.25;20.67;;;;;;;;;;5093847;28;20040;-63
2024/03/16 08:10:07;;;;;;;38.35;21.05;;;;;;;;;;5098780;28;20452;-62
2024/03/16 08:12:32;;;;;;;35.00;20.58;;;;;;;;;;5114813;28;20051;-60
2024/03/16 08:14:58;;;;;;;36.67;19.77;;;;;;;;;;5114267;28;20102;-60
2024/03/16 08:17:23;;;;;;;32.63;19.02;;;;;;;;;;5114538;28;20030;-62
2024/03/16 08:19:48;;;;;;;33.75;20.60;;;;;;;;;;5114206;28;20016;-61
2024/03/16 08:22:14;;;;;;;33.88;19.67;;;;;;;;;;5113270;28;20081;-62
2024/03/16 08:24:39;;;;;;;34.50;18.95;;;;;;;;;;5112707;28;20028;-63
2024/03/16 08:27:04;;;;;;;36.55;19.55;;;;;;;;;;5114196;28;20035;-62
2024/03/16 08:29:30;;;;;;;32.40;20.10;;;;;;;;;;5096567;28;20300;-63
2024/03/16 08:31:55;;;;;;;31.48;19.75;;;;;;;;;;5114303;28;20019;-64
2024/03/16 08:34:21;;;;;;;34.17;19.85;;;;;;;;;;5113978;28;20032;-60
2024/03/16 08:36:46;;;;;;;33.22;19.95;;;;;;;;;;5114075;28;20019;-62
2024/03/16 08:39:11;;;;;;;34.15;20.27;;;;;;;;;;5114137;28;20115;-62
2024/03/16 08:41:37;;;;;;;31.45;19.45;;;;;;;;;;5114392;27;20291;-62
2024/03/16 08:44:04;;;;;;;37.70;21.33;;;;;;;;;;5113462;28;20016;-61
2024/03/16 08:46:29;;;;;;;42.08;22.70;;;;;;;;;;5112082;27;20043;-61
2024/03/16 08:48:55;;;;;;;34.45;20.60;;;;;;;;;;5106409;28;20067;-62
2024/03/16 08:51:20;;;;;;;32.47;20.98;;;;;;;;;;5093302;28;20400;-62
2024/03/16 08:53:45;;;;;;;34.63;20.63;;;;;;;;;;5111252;28;20135;-62
2024/03/16 08:56:11;;;;;;;33.13;20.63;;;;;;;;;;5114189;28;20031;-62
2024/03/16 08:58:36;;;;;;;31.85;20.05;;;;;;;;;;5113991;28;20016;-62
2024/03/16 09:01:02;;;;;;;27.60;18.98;;;;;;;;;;5103568;28;20393;-60
2024/03/16 09:03:27;;;;;;;33.00;18.73;;;;;;;;;;5093044;28;20032;-64
2024/03/16 09:05:52;;;;;;;37.05;18.83;;;;;;;;;;5092624;28;20028;-63
2024/03/16 09:08:18;;;;;;;31.30;18.48;;;;;;;;;;5095069;28;20597;-63
2024/03/16 09:10:43;;;;;;;29.02;18.08;;;;;;;;;;5113140;28;20059;-63
2024/03/16 09:13:10;;;;;;;27.25;16.35;;;;;;;;;;5113664;28;20027;-63
2024/03/16 09:15:35;;;;;;;26.52;16.42;;;;;;;;;;5113538;28;20035;-62
2024/03/16 09:18:01;;;;;;;23.77;16.25;;;;;;;;;;5093240;28;20028;-60
2024/03/16 09:20:26;;;;;;;29.08;16.98;;;;;;;;;;5092773;28;20381;-62
2024/03/16 09:22:52;;;;;;;29.00;16.67;;;;;;;;;;5092959;28;20035;-63
2024/03/16 09:25:20;;;;;;;32.88;16.42;;;;;;;;;;5102060;28;20341;-63
2024/03/16 09:27:46;;;;;;;29.55;17.02;;;;;;;;;;5112944;28;20454;-63
2024/03/16 09:30:11;;;;;;;26.45;16.40;;;;;;;;;;5092614;28;20066;-64
2024/03/16 09:32:36;;;;;;;28.00;16.67;;;;;;;;;;5093156;28;20044;-63
2024/03/16 09:35:06;;;;;;;32.67;17.15;;;;;;;;;;5093311;28;20020;-62
2024/03/16 09:37:31;;;;;;;25.23;15.40;;;;;;;;;;5092928;28;20948;-64
2024/03/16 09:39:57;;;;;;;28.05;15.52;;;;;;;;;;5093756;28;20035;-64
2024/03/16 09:42:22;;;;;;;27.35;16.52;;;;;;;;;;5112800;28;20432;-63
2024/03/16 09:44:48;;;;;;;26.15;14.88;;;;;;;;;;5113357;28;20020;-63
2024/03/16 09:47:15;;;;;;;23.85;14.65;;;;;;;;;;5113166;28;20357;-64
2024/03/16 09:49:43;;;;;;;27.08;13.77;;;;;;;;;;5096166;28;20471;-63
2024/03/16 09:52:13;;;;;;;18.45;12.20;;;;;;;;;;5092862;28;20063;-64
2024/03/16 09:54:40;;;;;;;22.33;11.88;;;;;;;;;;5093066;28;20036;-63
2024/03/16 09:57:12;;;;;;;22.25;10.57;;;;;;;;;;5092118;28;20032;-62
2024/03/16 09:59:37;;;;;;;21.63;11.07;;;;;;;;;;5097989;28;20063;-62
2024/03/16 10:02:08;;;;;;;18.90;11.27;;;;;;;;;;5093295;28;20086;-65
2024/03/16 10:04:33;;;;;;;19.38;11.65;;;;;;;;;;5097598;28;20434;-63
2024/03/16 10:07:00;;;;;;;23.25;12.45;;;;;;;;;;5110787;28;20341;-65
2024/03/16 10:09:27;;;;;;;22.35;12.40;;;;;;;;;;5112627;28;20023;-65
2024/03/16 10:11:54;;;;;;;19.25;12.00;;;;;;;;;;5112426;28;20039;-63
2024/03/16 10:14:21;;;;;;;20.92;12.20;;;;;;;;;;5112957;28;20012;-64
2024/03/16 10:16:47;;;;;;;20.88;12.40;;;;;;;;;;5112604;28;20016;-71
2024/03/16 10:19:13;;;;;;;21.85;12.55;;;;;;;;;;5109814;28;20043;-71
2024/03/16 10:21:40;;;;;;;22.92;12.82;;;;;;;;;;5112928;28;20027;-70
2024/03/16 10:24:08;;;;;;;22.90;12.38;;;;;;;;;;5112348;28;20353;-72
2024/03/16 10:26:35;;;;;;;21.05;12.30;;;;;;;;;;5111762;28;20078;-70
2024/03/16 10:29:01;;;;;;;23.77;11.90;;;;;;;;;;5098860;28;20032;-71
2024/03/16 10:31:29;;;;;;;22.27;11.82;;;;;;;;;;5095997;28;20100;-69
2024/03/16 10:33:56;;;;;;;21.20;11.25;;;;;;;;;;5096123;28;20024;-69
2024/03/16 10:36:21;;;;;;;20.95;11.38;;;;;;;;;;5096321;28;20100;-69
2024/03/16 10:38:47;;;;;;;25.08;11.15;;;;;;;;;;5094879;28;20115;-70
2024/03/16 10:41:16;;;;;;;17.23;10.50;;;;;;;;;;5097058;28;20063;-67
2024/03/16 10:43:45;;;;;;;15.82;10.30;;;;;;;;;;5094079;28;20044;-67
2024/03/16 10:46:10;;;;;;;24.33;11.45;;;;;;;;;;5095842;28;20081;-63
2024/03/16 10:48:36;;;;;;;21.20;11.02;;;;;;;;;;5095275;28;20040;-65
2024/03/16 10:51:07;;;;;;;20.70;11.13;;;;;;;;;;5099008;28;20019;-64
2024/03/16 10:53:34;;;;;;;17.08;10.18;;;;;;;;;;5116073;28;20147;-64
2024/03/16 10:56:00;;;;;;;24.48;10.93;;;;;;;;;;5115808;28;20066;-64
2024/03/16 10:58:27;;;;;;;21.33;10.70;;;;;;;;;;5115796;28;20039;-66
2024/03/16 11:01:18;;;;;;;20.40;11.43;;;;;;;;;;5115829;28;20051;-65
2024/03/16 11:03:43;;;;;;;24.90;10.80;;;;;;;;;;5115824;28;20015;-65
2024/03/16 11:06:18;;;;;;;19.73;11.18;;;;;;;;;;5109232;28;20342;-66
2024/03/16 11:08:45;;;;;;;24.85;11.40;;;;;;;;;;5096354;28;20036;-66
2024/03/16 11:11:15;;;;;;;22.65;11.77;;;;;;;;;;5095815;28;20092;-68
2024/03/16 11:14:03;;;;;;;22.02;11.65;;;;;;;;;;5094562;28;20021;-66
2024/03/16 11:16:29;;;;;;;18.50;11.63;;;;;;;;;;5108567;28;20020;-64
2024/03/16 11:18:55;;;;;;;19.85;10.80;;;;;;;;;;5115432;28;20083;-64
2024/03/16 11:21:22;;;;;;;26.67;12.13;;;;;;;;;;5115570;27;20020;-65
2024/03/16 11:23:48;;;;;;;24.30;11.55;;;;;;;;;;5114927;28;20039;-71
2024/03/16 11:26:25;;;;;;;25.38;11.88;;;;;;;;;;5107897;28;20295;-64
2024/03/16 11:28:51;;;;;;;24.10;12.00;;;;;;;;;;5095935;28;20027;-64
2024/03/16 11:31:25;;;;;;;20.90;11.73;;;;;;;;;;5095286;28;20142;-65
2024/03/16 11:33:51;;;;;;;19.90;10.82;;;;;;;;;;5094720;28;20343;-64
2024/03/16 11:36:16;;;;;;;21.70;10.82;;;;;;;;;;5094069;28;20020;-65
2024/03/16 11:38:41;;;;;;;23.08;11.57;;;;;;;;;;5093515;28;20031;-63
2024/03/16 11:41:07;;;;;;;27.23;10.82;;;;;;;;;;5113226;28;20852;-63
2024/03/16 11:43:32;;;;;;;27.90;11.88;;;;;;;;;;5115081;28;20096;-64
2024/03/16 11:45:58;;;;;;;23.25;11.38;;;;;;;;;;5107838;28;20430;-64
2024/03/16 11:48:25;;;;;;;20.58;10.82;;;;;;;;;;5094284;28;20047;-66
2024/03/16 11:50:50;;;;;;;23.40;10.70;;;;;;;;;;5093685;28;20022;-64
2024/03/16 11:53:16;;;;;;;24.83;10.88;;;;;;;;;;5094602;28;20138;-65
2024/03/16 11:55:41;;;;;;;28.17;11.32;;;;;;;;;;5094163;28;20027;-67
2024/03/16 11:58:09;;;;;;;23.40;10.52;;;;;;;;;;5094296;28;20023;-66
2024/03/16 12:00:34;;;;;;;23.35;10.82;;;;;;;;;;5094334;28;20095;-64
2024/03/16 12:03:03;;;;;;;25.73;10.63;;;;;;;;;;5100828;28;20119;-67
2024/03/16 12:05:29;;;;;;;21.50;10.25;;;;;;;;;;5101409;28;20027;-65
2024/03/16 12:07:55;;;;;;;18.85;9.70;;;;;;;;;;5114205;28;20100;-64
2024/03/16 12:10:24;;;;;;;25.45;10.00;;;;;;;;;;5087666;28;20032;-70
2024/03/16 12:12:52;;;;;;;23.30;10.80;;;;;;;;;;5079999;28;20389;-68
2024/03/16 12:15:19;;;;;;;22.35;10.25;;;;;;;;;;5092142;28;20426;-67
2024/03/16 12:17:46;;;;;;;25.98;10.60;;;;;;;;;;5095155;28;20020;-63
2024/03/16 12:20:11;;;;;;;29.27;10.10;;;;;;;;;;5094011;28;20051;-66
2024/03/16 12:22:42;;;;;;;26.90;9.65;;;;;;;;;;5093382;28;20145;-66
2024/03/16 12:25:11;;;;;;;19.38;9.10;;;;;;;;;;5093761;28;20017;-69
2024/03/16 12:27:49;;;;;;;20.83;9.98;;;;;;;;;;5113989;28;20360;-67
2024/03/16 12:30:14;;;;;;;22.48;9.70;;;;;;;;;;5114529;28;20420;-64
2024/03/16 12:32:41;;;;;;;20.30;10.43;;;;;;;;;;5114258;28;20135;-64
2024/03/16 12:35:09;;;;;;;22.83;9.52;;;;;;;;;;5113940;28;20334;-64
2024/03/16 12:37:34;;;;;;;16.98;9.70;;;;;;;;;;5114404;28;20035;-64
2024/03/16 12:40:00;;;;;;;21.75;9.50;;;;;;;;;;5113635;28;20015;-65
2024/03/16 12:42:26;;;;;;;20.98;9.88;;;;;;;;;;5113997;28;20334;-64
2024/03/16 12:44:51;;;;;;;24.40;10.43;;;;;;;;;;5114166;28;20039;-64
2024/03/16 12:47:17;;;;;;;20.88;10.02;;;;;;;;;;5096114;28;20032;-66
2024/03/16 12:49:44;;;;;;;23.58;9.60;;;;;;;;;;5096440;28;20529;-63
2024/03/16 12:52:10;;;;;;;26.13;9.35;;;;;;;;;;5112905;28;20070;-64
2024/03/16 12:54:36;;;;;;;28.35;10.43;;;;;;;;;;5113618;28;20058;-64
2024/03/16 12:57:01;;;;;;;27.23;9.90;;;;;;;;;;5112324;28;20307;-64
2024/03/16 12:59:26;;;;;;;26.17;9.73;;;;;;;;;;5113623;28;20028;-64
2024/03/16 13:01:52;;;;;;;21.30;10.63;;;;;;;;;;5112770;28;20023;-65
2024/03/16 13:04:18;;;;;;;22.13;10.80;;;;;;;;;;5114083;28;20028;-63
2024/03/16 13:06:44;;;;;;;24.40;10.32;;;;;;;;;;5099566;28;20073;-63
2024/03/16 13:09:13;;;;;;;22.20;9.73;;;;;;;;;;5093153;28;20032;-65
2024/03/16 13:11:46;;;;;;;23.50;9.50;;;;;;;;;;5092890;28;20030;-65
2024/03/16 13:14:11;;;;;;;21.27;8.35;;;;;;;;;;5099708;28;20026;-64
2024/03/16 13:16:37;;;;;;;20.58;8.85;;;;;;;;;;5113750;28;20027;-63
2024/03/16 13:19:04;;;;;;;23.48;9.00;;;;;;;;;;5113258;27;20106;-64
2024/03/16 13:21:29;;;;;;;20.65;9.00;;;;;;;;;;5112994;28;20088;-64
2024/03/16 13:23:55;;;;;;;21.92;8.32;;;;;;;;;;5113155;28;20349;-64
2024/03/16 13:26:20;;;;;;;27.63;10.00;;;;;;;;;;5111922;28;20028;-64
2024/03/16 13:28:46;;;;;;;16.60;8.70;;;;;;;;;;5111342;28;20113;-63
2024/03/16 13:31:14;;;;;;;24.30;9.07;;;;;;;;;;5111132;28;20058;-63
2024/03/16 13:33:40;;;;;;;20.20;8.75;;;;;;;;;;5113359;28;20028;-65
2024/03/16 13:36:06;;;;;;;25.13;9.77;;;;;;;;;;5098673;28;20029;-64
2024/03/16 13:38:32;;;;;;;23.23;9.77;;;;;;;;;;5113316;28;20027;-63
2024/03/16 13:40:57;;;;;;;22.90;9.45;;;;;;;;;;5113069;28;20438;-64
2024/03/16 13:43:23;;;;;;;26.10;9.40;;;;;;;;;;5113009;28;20031;-64
2024/03/16 13:45:48;;;;;;;21.52;9.40;;;;;;;;;;5106367;28;20454;-64
2024/03/16 13:48:14;;;;;;;28.50;10.45;;;;;;;;;;5092319;28;20994;-65
2024/03/16 13:50:39;;;;;;;20.38;10.27;;;;;;;;;;5092191;28;20020;-64
2024/03/16 13:53:05;;;;;;;27.35;9.82;;;;;;;;;;5092356;28;20131;-64
2024/03/16 13:55:31;;;;;;;28.08;9.75;;;;;;;;;;5092189;28;20419;-64
2024/03/16 13:57:56;;;;;;;25.08;10.23;;;;;;;;;;5092437;28;20035;-64
2024/03/16 14:00:22;;;;;;;31.08;11.48;;;;;;;;;;5097332;28;20027;-63
2024/03/16 14:02:49;;;;;;;28.35;10.15;;;;;;;;;;5114136;28;20028;-63
2024/03/16 14:05:16;;;;;;;29.92;10.27;;;;;;;;;;5114839;27;20073;-64
2024/03/16 14:07:41;;;;;;;32.58;11.35;;;;;;;;;;5096159;28;20096;-63
2024/03/16 14:10:08;;;;;;;29.73;11.75;;;;;;;;;;5096645;28;20024;-65
2024/03/16 14:12:33;;;;;;;27.95;11.50;;;;;;;;;;5096316;28;20058;-63